Time;durP1;ratioP1;P1;durP2;ratioP2;P2;SDS_P1;SDS_P2;PMS_P1;PMS_P2;Temp;Humidity;BMP_temperature;BMP_pressure;BME280_temperature;BME280_humidity;BME280_pressure;Samples;Min_cycle;Max_cycle;Signal;HPM_P1;HPM_P2
2022/03/28 00:02:33;;;;;;;11.63;6.33;;;;;;;;;;5011042;28;20196;-83
2022/03/28 00:05:38;;;;;;;13.07;7.27;;;;;;;;;;5033928;28;20185;-83
2022/03/28 00:08:42;;;;;;;12.27;6.93;;;;;;;;;;5011371;28;20220;-83
2022/03/28 00:11:46;;;;;;;13.93;6.90;;;;;;;;;;5011226;28;20208;-83
2022/03/28 00:14:50;;;;;;;12.07;7.57;;;;;;;;;;5011469;28;20184;-83
2022/03/28 00:17:54;;;;;;;9.97;6.57;;;;;;;;;;5022316;28;20185;-83
2022/03/28 00:20:58;;;;;;;11.50;7.03;;;;;;;;;;5011354;28;20563;-83
2022/03/28 00:24:03;;;;;;;9.30;6.70;;;;;;;;;;5034135;28;20196;-83
2022/03/28 00:27:06;;;;;;;11.97;6.73;;;;;;;;;;5034065;28;20185;-83
2022/03/28 00:30:11;;;;;;;8.93;6.17;;;;;;;;;;5022575;28;20577;-83
2022/03/28 00:33:14;;;;;;;11.03;6.83;;;;;;;;;;5022491;28;20208;-83
2022/03/28 00:36:19;;;;;;;8.47;6.30;;;;;;;;;;5022670;28;20201;-83
2022/03/28 00:39:23;;;;;;;11.93;6.63;;;;;;;;;;5022689;28;20228;-83
2022/03/28 00:42:27;;;;;;;9.00;6.47;;;;;;;;;;5022861;28;20185;-83
2022/03/28 00:45:39;;;;;;;10.80;6.70;;;;;;;;;;5011363;28;20535;-83
2022/03/28 00:48:44;;;;;;;11.67;6.57;;;;;;;;;;5022341;28;20217;-83
2022/03/28 00:51:47;;;;;;;8.47;6.20;;;;;;;;;;5022700;28;20177;-83
2022/03/28 00:54:52;;;;;;;12.70;6.80;;;;;;;;;;5022880;28;20185;-83
2022/03/28 00:57:56;;;;;;;10.13;7.23;;;;;;;;;;5022844;28;20639;-83
2022/03/28 01:01:01;;;;;;;11.37;7.10;;;;;;;;;;5022705;28;20176;-83
2022/03/28 01:04:08;;;;;;;11.70;7.20;;;;;;;;;;5011527;28;20173;-83
2022/03/28 01:07:13;;;;;;;13.23;6.50;;;;;;;;;;5022776;28;20173;-83
2022/03/28 01:10:17;;;;;;;9.23;6.50;;;;;;;;;;5022363;28;20216;-83
2022/03/28 01:13:23;;;;;;;10.50;7.10;;;;;;;;;;5011422;28;20576;-83
2022/03/28 01:16:31;;;;;;;10.50;6.47;;;;;;;;;;5026411;28;21129;-83
2022/03/28 01:19:35;;;;;;;9.87;6.60;;;;;;;;;;5026600;28;20213;-83
2022/03/28 01:22:39;;;;;;;11.20;7.07;;;;;;;;;;5026726;28;21148;-83
2022/03/28 01:25:45;;;;;;;10.63;7.13;;;;;;;;;;5026473;28;20556;-83
2022/03/28 01:28:49;;;;;;;11.20;7.00;;;;;;;;;;5015009;28;20615;-83
2022/03/28 01:31:53;;;;;;;11.23;6.97;;;;;;;;;;5026894;28;20180;-83
2022/03/28 01:34:57;;;;;;;10.40;7.00;;;;;;;;;;5038593;28;20532;-83
2022/03/28 01:38:04;;;;;;;9.77;7.10;;;;;;;;;;5026525;28;20540;-83
2022/03/28 01:41:08;;;;;;;11.93;7.00;;;;;;;;;;5026208;28;20547;-83
2022/03/28 01:44:13;;;;;;;11.40;7.93;;;;;;;;;;5025854;28;20517;-83
2022/03/28 01:47:17;;;;;;;10.27;7.33;;;;;;;;;;5025872;28;21098;-83
2022/03/28 01:50:22;;;;;;;9.30;6.63;;;;;;;;;;5025870;28;20623;-83
2022/03/28 01:53:26;;;;;;;11.00;6.93;;;;;;;;;;5026110;28;20643;-83
2022/03/28 01:56:33;;;;;;;11.40;7.30;;;;;;;;;;5025927;28;20548;-83
2022/03/28 01:59:37;;;;;;;13.13;7.20;;;;;;;;;;5014757;28;21157;-83
2022/03/28 02:02:42;;;;;;;12.97;6.90;;;;;;;;;;5014565;28;20543;-83
2022/03/28 02:05:46;;;;;;;12.23;7.63;;;;;;;;;;5014653;28;20900;-83
2022/03/28 02:08:50;;;;;;;12.10;6.97;;;;;;;;;;5014589;28;20623;-83
2022/03/28 02:11:54;;;;;;;12.47;7.57;;;;;;;;;;5025630;28;20603;-83
2022/03/28 02:14:58;;;;;;;12.23;7.37;;;;;;;;;;5036709;28;20587;-83
2022/03/28 02:18:03;;;;;;;12.57;7.90;;;;;;;;;;5025747;28;20544;-83
2022/03/28 02:21:07;;;;;;;12.57;7.23;;;;;;;;;;5025249;28;20544;-83
2022/03/28 02:24:11;;;;;;;9.03;7.03;;;;;;;;;;5025294;28;20532;-83
2022/03/28 02:27:15;;;;;;;11.47;8.27;;;;;;;;;;5035912;28;20552;-83
2022/03/28 02:30:20;;;;;;;13.97;8.43;;;;;;;;;;5014140;28;20623;-83
2022/03/28 02:33:23;;;;;;;11.80;7.87;;;;;;;;;;5014083;28;20596;-83
2022/03/28 02:36:28;;;;;;;11.67;7.57;;;;;;;;;;5025337;28;20539;-83
2022/03/28 02:39:32;;;;;;;13.13;8.40;;;;;;;;;;5013791;28;20634;-83
2022/03/28 02:42:37;;;;;;;16.13;8.90;;;;;;;;;;5014124;28;20528;-83
2022/03/28 02:45:41;;;;;;;13.73;8.70;;;;;;;;;;5025235;28;20603;-83
2022/03/28 02:48:45;;;;;;;14.53;8.70;;;;;;;;;;5013466;28;20622;-83
2022/03/28 02:51:49;;;;;;;15.17;8.93;;;;;;;;;;5013825;28;20536;-83
2022/03/28 02:54:54;;;;;;;13.37;8.40;;;;;;;;;;5036287;28;20532;-83
2022/03/28 02:57:58;;;;;;;14.00;8.47;;;;;;;;;;5013305;28;20544;-83
2022/03/28 03:01:02;;;;;;;13.47;8.53;;;;;;;;;;5024652;28;20536;-83
2022/03/28 03:04:06;;;;;;;15.63;9.40;;;;;;;;;;5013591;28;20528;-83
2022/03/28 03:07:10;;;;;;;11.57;8.10;;;;;;;;;;5013704;28;20543;-83
2022/03/28 03:10:15;;;;;;;13.03;8.40;;;;;;;;;;5035886;28;20619;-83
2022/03/28 03:13:19;;;;;;;13.37;7.83;;;;;;;;;;5013346;28;20600;-83
2022/03/28 03:16:23;;;;;;;15.87;8.40;;;;;;;;;;5024563;28;20884;-83
2022/03/28 03:19:27;;;;;;;14.67;8.13;;;;;;;;;;5013140;28;20623;-83
2022/03/28 03:22:31;;;;;;;12.93;8.17;;;;;;;;;;5024578;28;20536;-83
2022/03/28 03:25:36;;;;;;;16.47;8.23;;;;;;;;;;5024467;28;20548;-83
2022/03/28 03:28:40;;;;;;;15.87;8.27;;;;;;;;;;5024105;28;20955;-83
2022/03/28 03:31:44;;;;;;;11.00;8.03;;;;;;;;;;5013023;28;20552;-83
2022/03/28 03:34:48;;;;;;;12.87;8.53;;;;;;;;;;5024526;28;20540;-83
2022/03/28 03:37:53;;;;;;;12.60;8.63;;;;;;;;;;5022459;28;20611;-83
2022/03/28 03:40:57;;;;;;;12.40;8.17;;;;;;;;;;5022190;28;20556;-83
2022/03/28 03:44:01;;;;;;;14.17;7.87;;;;;;;;;;5033924;28;20536;-83
2022/03/28 03:47:05;;;;;;;15.07;8.27;;;;;;;;;;5033744;28;20552;-83
2022/03/28 03:50:10;;;;;;;16.97;8.57;;;;;;;;;;5034875;28;20627;-83
2022/03/28 03:53:14;;;;;;;12.93;8.17;;;;;;;;;;5011233;28;20592;-83
2022/03/28 03:56:18;;;;;;;11.07;7.60;;;;;;;;;;5022731;28;20540;-83
2022/03/28 03:59:22;;;;;;;13.33;8.57;;;;;;;;;;5034492;28;20632;-83
2022/03/28 04:02:26;;;;;;;11.30;8.23;;;;;;;;;;5034032;28;21209;-83
2022/03/28 04:05:32;;;;;;;13.50;9.40;;;;;;;;;;5022717;28;20536;-83
2022/03/28 04:08:37;;;;;;;11.23;7.57;;;;;;;;;;5011227;28;20614;-83
2022/03/28 04:11:41;;;;;;;15.93;8.97;;;;;;;;;;5022960;28;20552;-83
2022/03/28 04:14:45;;;;;;;15.13;8.20;;;;;;;;;;5022675;28;20596;-83
2022/03/28 04:17:49;;;;;;;14.97;8.80;;;;;;;;;;5011668;28;20540;-83
2022/03/28 04:20:55;;;;;;;12.83;9.43;;;;;;;;;;5011867;28;20535;-83
2022/03/28 04:23:59;;;;;;;13.60;9.57;;;;;;;;;;5033828;28;20536;-82
2022/03/28 04:27:03;;;;;;;13.33;9.13;;;;;;;;;;5011176;28;20896;-83
2022/03/28 04:30:09;;;;;;;15.80;9.70;;;;;;;;;;5022559;28;20967;-83
2022/03/28 04:33:13;;;;;;;15.27;9.03;;;;;;;;;;5033899;28;20595;-83
2022/03/28 04:36:17;;;;;;;18.13;8.97;;;;;;;;;;5022978;28;20872;-83
2022/03/28 04:39:21;;;;;;;15.10;9.20;;;;;;;;;;5022123;28;20642;-83
2022/03/28 04:42:25;;;;;;;14.17;8.70;;;;;;;;;;5022570;28;20556;-83
2022/03/28 04:45:30;;;;;;;19.33;9.60;;;;;;;;;;5011140;28;20544;-83
2022/03/28 04:48:34;;;;;;;13.93;8.97;;;;;;;;;;5022220;28;21195;-83
2022/03/28 04:51:38;;;;;;;12.97;9.10;;;;;;;;;;5022102;28;20599;-83
2022/03/28 04:54:42;;;;;;;14.27;8.70;;;;;;;;;;5011191;28;20647;-83
2022/03/28 04:57:46;;;;;;;15.70;9.93;;;;;;;;;;5011467;28;20864;-83
2022/03/28 05:00:52;;;;;;;14.57;9.70;;;;;;;;;;5022525;28;20540;-83
2022/03/28 05:03:56;;;;;;;13.40;9.00;;;;;;;;;;5022340;28;20595;-83
2022/03/28 05:07:01;;;;;;;15.37;9.43;;;;;;;;;;5023378;28;20544;-83
2022/03/28 05:10:05;;;;;;;14.90;9.13;;;;;;;;;;5022918;28;21188;-83
2022/03/28 05:13:10;;;;;;;15.07;9.70;;;;;;;;;;5033789;28;20603;-83
2022/03/28 05:16:14;;;;;;;16.23;10.30;;;;;;;;;;5011176;28;20872;-84
2022/03/28 05:19:18;;;;;;;13.10;9.03;;;;;;;;;;5022429;28;20623;-83
2022/03/28 05:22:23;;;;;;;15.23;9.93;;;;;;;;;;5011400;28;20548;-83
2022/03/28 05:25:27;;;;;;;15.50;10.73;;;;;;;;;;5022717;28;20897;-83
2022/03/28 05:28:31;;;;;;;17.67;10.60;;;;;;;;;;5034142;28;21090;-83
2022/03/28 05:31:36;;;;;;;15.90;9.97;;;;;;;;;;5011374;28;20544;-84
2022/03/28 05:34:40;;;;;;;23.40;12.60;;;;;;;;;;5011008;28;20596;-83
2022/03/28 05:37:44;;;;;;;21.73;13.13;;;;;;;;;;5034056;28;20543;-83
2022/03/28 05:40:49;;;;;;;32.73;21.43;;;;;;;;;;5010989;28;21133;-83
2022/03/28 05:43:53;;;;;;;25.73;15.37;;;;;;;;;;5022508;28;20536;-83
2022/03/28 05:46:58;;;;;;;26.10;14.30;;;;;;;;;;5011325;28;20595;-83
2022/03/28 05:50:02;;;;;;;119.67;50.87;;;;;;;;;;5010925;28;21010;-83
2022/03/28 05:53:07;;;;;;;63.67;30.37;;;;;;;;;;5022525;28;20543;-83
2022/03/28 05:56:11;;;;;;;61.37;35.07;;;;;;;;;;5011428;28;20556;-83
2022/03/28 05:59:15;;;;;;;55.63;28.80;;;;;;;;;;5023564;28;20630;-83
2022/03/28 06:02:19;;;;;;;29.70;17.60;;;;;;;;;;5012956;28;20547;-83
2022/03/28 06:05:24;;;;;;;18.60;12.60;;;;;;;;;;5025887;28;20536;-83
2022/03/28 06:08:28;;;;;;;15.57;10.43;;;;;;;;;;5014855;28;20539;-83
2022/03/28 06:11:32;;;;;;;18.37;9.87;;;;;;;;;;5014726;28;20547;-83
2022/03/28 06:14:36;;;;;;;21.13;9.37;;;;;;;;;;5014667;28;20591;-83
2022/03/28 06:17:40;;;;;;;14.83;9.97;;;;;;;;;;5025398;28;21098;-83
2022/03/28 06:20:44;;;;;;;27.30;10.17;;;;;;;;;;5025896;28;21075;-83
2022/03/28 06:23:49;;;;;;;24.47;10.50;;;;;;;;;;5014225;28;21145;-83
2022/03/28 06:26:53;;;;;;;21.63;10.00;;;;;;;;;;5025348;28;20571;-83
2022/03/28 06:29:57;;;;;;;20.77;10.13;;;;;;;;;;5035822;28;20619;-84
2022/03/28 06:33:02;;;;;;;24.07;10.07;;;;;;;;;;5013326;28;20540;-84
2022/03/28 06:36:06;;;;;;;17.77;10.13;;;;;;;;;;5024991;28;20532;-83
2022/03/28 06:39:11;;;;;;;17.43;11.40;;;;;;;;;;5024820;28;20653;-83
2022/03/28 06:42:15;;;;;;;21.90;10.37;;;;;;;;;;5024362;28;20888;-84
2022/03/28 06:45:20;;;;;;;15.23;10.37;;;;;;;;;;5013052;28;20532;-84
2022/03/28 06:48:24;;;;;;;18.80;10.57;;;;;;;;;;5012879;28;20181;-84
2022/03/28 06:51:28;;;;;;;18.97;9.97;;;;;;;;;;5035818;28;20180;-84
2022/03/28 06:54:33;;;;;;;20.07;10.67;;;;;;;;;;5034973;28;20208;-84
2022/03/28 06:57:37;;;;;;;23.00;10.57;;;;;;;;;;5012942;28;20173;-84
2022/03/28 07:00:42;;;;;;;16.57;11.20;;;;;;;;;;5012838;28;20181;-84
2022/03/28 07:03:46;;;;;;;23.80;10.60;;;;;;;;;;5024151;28;20173;-84
2022/03/28 07:06:50;;;;;;;23.43;11.53;;;;;;;;;;5012480;28;20177;-84
2022/03/28 07:09:54;;;;;;;20.23;11.27;;;;;;;;;;5012101;28;20247;-84
2022/03/28 07:12:59;;;;;;;20.27;10.97;;;;;;;;;;5023124;28;20203;-85
2022/03/28 07:16:03;;;;;;;20.93;11.57;;;;;;;;;;5011887;28;20184;-85
2022/03/28 07:19:08;;;;;;;20.50;11.17;;;;;;;;;;5034566;28;20706;-85
2022/03/28 07:22:13;;;;;;;20.30;11.97;;;;;;;;;;5034170;28;20184;-85
2022/03/28 07:25:17;;;;;;;22.77;11.60;;;;;;;;;;5011806;28;20647;-85
2022/03/28 07:28:21;;;;;;;24.57;11.20;;;;;;;;;;5011696;28;20188;-85
2022/03/28 07:31:25;;;;;;;22.97;10.97;;;;;;;;;;5021612;28;20206;-85
2022/03/28 07:34:29;;;;;;;19.00;10.57;;;;;;;;;;5024863;28;20216;-85
2022/03/28 07:37:34;;;;;;;27.50;11.00;;;;;;;;;;5012541;28;20184;-85
2022/03/28 07:40:40;;;;;;;24.63;11.33;;;;;;;;;;5022122;28;20246;-85
2022/03/28 07:43:44;;;;;;;24.43;11.63;;;;;;;;;;5011210;28;20188;-85
2022/03/28 07:46:48;;;;;;;25.47;11.23;;;;;;;;;;5033669;28;20788;-85
2022/03/28 07:49:54;;;;;;;20.50;11.90;;;;;;;;;;5010935;28;20243;-85
2022/03/28 07:52:58;;;;;;;22.03;13.90;;;;;;;;;;5011100;28;20549;-85
2022/03/28 07:56:02;;;;;;;24.03;11.80;;;;;;;;;;5022063;28;20215;-85
2022/03/28 07:59:06;;;;;;;27.03;13.40;;;;;;;;;;5022099;28;20223;-85
2022/03/28 08:02:10;;;;;;;17.27;11.63;;;;;;;;;;5033339;28;20191;-85
2022/03/28 08:05:14;;;;;;;18.70;12.17;;;;;;;;;;5010854;28;20643;-85
2022/03/28 08:08:18;;;;;;;20.33;11.77;;;;;;;;;;5033237;28;20187;-85
2022/03/28 08:11:22;;;;;;;18.73;12.03;;;;;;;;;;5021715;28;20663;-85
2022/03/28 08:14:26;;;;;;;19.13;12.20;;;;;;;;;;5010800;28;20686;-85
2022/03/28 08:17:31;;;;;;;19.23;13.20;;;;;;;;;;5033066;28;20188;-85
2022/03/28 08:20:35;;;;;;;25.27;12.97;;;;;;;;;;5010303;28;20227;-85
2022/03/28 08:23:39;;;;;;;24.03;12.87;;;;;;;;;;5010186;28;20195;-85
2022/03/28 08:26:44;;;;;;;19.50;12.63;;;;;;;;;;5021586;28;20543;-85
2022/03/28 08:29:48;;;;;;;20.37;12.93;;;;;;;;;;5032897;28;20228;-85
2022/03/28 08:32:52;;;;;;;22.10;13.30;;;;;;;;;;5010383;28;20188;-85
2022/03/28 08:35:56;;;;;;;22.90;14.27;;;;;;;;;;5032990;28;20212;-84
2022/03/28 08:39:00;;;;;;;27.20;12.80;;;;;;;;;;5021444;28;20227;-84
2022/03/28 08:42:05;;;;;;;27.73;14.00;;;;;;;;;;5010171;28;20192;-85
2022/03/28 08:45:11;;;;;;;31.93;14.63;;;;;;;;;;5032839;28;20184;-85
2022/03/28 08:48:16;;;;;;;21.30;13.20;;;;;;;;;;5021132;28;20540;-85
2022/03/28 08:51:20;;;;;;;32.03;14.50;;;;;;;;;;5010120;28;20204;-85
2022/03/28 08:54:25;;;;;;;27.33;14.03;;;;;;;;;;5021262;28;20228;-85
2022/03/28 08:57:29;;;;;;;21.77;13.60;;;;;;;;;;5010012;28;20208;-85
2022/03/28 09:00:33;;;;;;;21.43;12.93;;;;;;;;;;5021584;28;20227;-85
2022/03/28 09:03:44;;;;;;;26.47;14.00;;;;;;;;;;5021293;28;20556;-85
2022/03/28 09:06:48;;;;;;;23.03;12.70;;;;;;;;;;5009863;28;20187;-85
2022/03/28 09:10:00;;;;;;;21.07;13.37;;;;;;;;;;5021101;28;20223;-85
2022/03/28 09:13:04;;;;;;;23.23;14.13;;;;;;;;;;5021184;28;20192;-85
2022/03/28 09:16:18;;;;;;;22.23;13.13;;;;;;;;;;5009810;28;20219;-85
2022/03/28 09:19:22;;;;;;;22.87;13.20;;;;;;;;;;5020775;28;20224;-85
2022/03/28 09:22:27;;;;;;;24.37;13.17;;;;;;;;;;5021133;28;20180;-85
2022/03/28 09:25:49;;;;;;;25.57;12.43;;;;;;;;;;5009876;28;20184;-85
2022/03/28 09:29:00;;;;;;;21.67;12.30;;;;;;;;;;5009870;28;20292;-86
2022/03/28 09:32:19;;;;;;;19.40;13.33;;;;;;;;;;5009576;28;20659;-86
2022/03/28 09:35:26;;;;;;;22.93;15.07;;;;;;;;;;5021502;28;20217;-86
2022/03/28 09:38:30;;;;;;;19.67;12.57;;;;;;;;;;5024679;28;20205;-86
2022/03/28 09:41:34;;;;;;;26.47;13.70;;;;;;;;;;5024403;28;20209;-86
2022/03/28 09:44:48;;;;;;;21.53;13.87;;;;;;;;;;5013305;28;20193;-85
2022/03/28 09:48:01;;;;;;;22.23;12.93;;;;;;;;;;5012966;28;20187;-85
2022/03/28 09:51:05;;;;;;;23.50;13.73;;;;;;;;;;5024423;28;20677;-85
2022/03/28 09:54:20;;;;;;;24.40;13.60;;;;;;;;;;5013500;28;20186;-86
2022/03/28 09:57:54;;;;;;;22.57;13.47;;;;;;;;;;5036792;28;20196;-86
2022/03/28 10:01:00;;;;;;;21.73;12.77;;;;;;;;;;5037055;28;20188;-83
2022/03/28 10:04:10;;;;;;;20.07;12.37;;;;;;;;;;5019533;28;20240;-83
2022/03/28 10:07:15;;;;;;;18.95;11.05;;;;;;;;;;4974713;28;20185;-83
2022/03/28 10:10:19;;;;;;;22.20;12.40;;;;;;;;;;4987006;28;20227;-84
2022/03/28 10:13:24;;;;;;;15.75;10.80;;;;;;;;;;4994245;28;20209;-83
2022/03/28 10:16:28;;;;;;;15.27;8.77;;;;;;;;;;4996943;28;20219;-84
2022/03/28 10:19:38;;;;;;;22.17;11.30;;;;;;;;;;4992146;28;20223;-84
2022/03/28 10:22:48;;;;;;;14.52;9.77;;;;;;;;;;4988560;28;20200;-84
2022/03/28 10:25:56;;;;;;;14.88;10.32;;;;;;;;;;4985321;28;20195;-84
2022/03/28 10:29:08;;;;;;;17.42;10.50;;;;;;;;;;5007369;28;20235;-82
2022/03/28 10:32:15;;;;;;;14.45;9.27;;;;;;;;;;4995279;28;20205;-82
2022/03/28 10:35:19;;;;;;;20.02;11.40;;;;;;;;;;5006453;28;20208;-81
2022/03/28 10:38:24;;;;;;;17.77;10.68;;;;;;;;;;5006395;28;20252;-81
2022/03/28 10:41:28;;;;;;;22.55;11.68;;;;;;;;;;5013139;28;20205;-81
2022/03/28 10:45:03;;;;;;;16.52;11.15;;;;;;;;;;4973656;28;20660;-83
2022/03/28 10:48:08;;;;;;;20.25;11.88;;;;;;;;;;4974006;28;20203;-82
2022/03/28 10:51:14;;;;;;;16.25;11.15;;;;;;;;;;5002019;28;20207;-82
2022/03/28 10:54:18;;;;;;;21.50;13.52;;;;;;;;;;5005915;28;20566;-81
2022/03/28 10:57:27;;;;;;;20.40;12.23;;;;;;;;;;5005828;28;20190;-81
2022/03/28 11:00:32;;;;;;;18.98;12.88;;;;;;;;;;4994235;28;20231;-82
2022/03/28 11:04:23;;;;;;;18.05;11.20;;;;;;;;;;4985656;28;20210;-82
2022/03/28 11:07:28;;;;;;;22.65;12.20;;;;;;;;;;4985984;28;20204;-81
2022/03/28 11:10:33;;;;;;;15.98;10.98;;;;;;;;;;4975301;28;20227;-81
2022/03/28 11:13:37;;;;;;;18.50;11.57;;;;;;;;;;5001547;28;20195;-81
2022/03/28 11:16:44;;;;;;;16.75;11.88;;;;;;;;;;4997505;28;20250;-81
2022/03/28 11:20:14;;;;;;;19.77;11.07;;;;;;;;;;4995245;28;20230;-81
2022/03/28 11:23:19;;;;;;;17.08;10.10;;;;;;;;;;4986257;28;20195;-82
2022/03/28 11:26:24;;;;;;;17.80;10.98;;;;;;;;;;4985766;28;20647;-82
2022/03/28 11:29:28;;;;;;;15.52;10.88;;;;;;;;;;5009610;28;20247;-81
2022/03/28 11:32:35;;;;;;;18.55;9.95;;;;;;;;;;4980584;28;20204;-82
2022/03/28 11:35:49;;;;;;;18.75;10.85;;;;;;;;;;5004984;28;20565;-81
2022/03/28 11:38:55;;;;;;;15.25;10.07;;;;;;;;;;4982738;28;20232;-81
2022/03/28 11:42:00;;;;;;;20.02;10.77;;;;;;;;;;4985674;28;20188;-81
2022/03/28 11:45:10;;;;;;;15.23;9.10;;;;;;;;;;4996717;28;20202;-81
2022/03/28 11:48:17;;;;;;;18.92;9.52;;;;;;;;;;4989728;28;20200;-81
2022/03/28 11:51:22;;;;;;;17.58;9.68;;;;;;;;;;5004836;28;20183;-81
2022/03/28 11:54:28;;;;;;;15.03;9.37;;;;;;;;;;5004736;28;20180;-81
2022/03/28 12:01:07;;;;;;;15.07;10.07;;;;;;;;;;4998957;28;20196;-81
2022/03/28 12:04:11;;;;;;;14.07;9.00;;;;;;;;;;5005957;28;20189;-82
2022/03/28 12:07:16;;;;;;;12.30;9.10;;;;;;;;;;4991288;28;20185;-82
2022/03/28 12:10:28;;;;;;;14.20;9.57;;;;;;;;;;4999502;28;20226;-82
2022/03/28 12:13:31;;;;;;;15.20;9.57;;;;;;;;;;4998921;28;20204;-82
2022/03/28 12:16:56;;;;;;;12.37;9.73;;;;;;;;;;5021606;28;20213;-82
2022/03/28 12:20:06;;;;;;;15.18;9.70;;;;;;;;;;4998932;28;20218;-81
2022/03/28 12:23:12;;;;;;;14.75;9.43;;;;;;;;;;5011607;28;20190;-81
2022/03/28 12:26:16;;;;;;;14.45;9.60;;;;;;;;;;4992973;28;20176;-81
2022/03/28 12:29:21;;;;;;;14.70;8.82;;;;;;;;;;4986750;28;20578;-81
2022/03/28 12:32:26;;;;;;;12.88;9.27;;;;;;;;;;5011507;28;20223;-81
2022/03/28 12:35:30;;;;;;;16.90;11.07;;;;;;;;;;4987154;28;20214;-81
2022/03/28 12:38:40;;;;;;;17.15;10.40;;;;;;;;;;4988591;28;20201;-81
2022/03/28 12:41:46;;;;;;;26.80;12.32;;;;;;;;;;5001709;28;20197;-81
2022/03/28 12:44:55;;;;;;;20.70;11.70;;;;;;;;;;5014055;28;20209;-81
2022/03/28 12:48:02;;;;;;;16.88;11.63;;;;;;;;;;4996118;28;20185;-81
2022/03/28 12:51:08;;;;;;;21.88;12.07;;;;;;;;;;4991569;28;20201;-82
2022/03/28 12:54:22;;;;;;;16.50;12.00;;;;;;;;;;5013699;28;20197;-82
2022/03/28 12:57:28;;;;;;;21.02;10.23;;;;;;;;;;5003635;28;20687;-82
2022/03/28 13:00:34;;;;;;;19.25;10.65;;;;;;;;;;4975564;28;20234;-81
2022/03/28 13:03:38;;;;;;;19.00;11.10;;;;;;;;;;4994494;28;20193;-81
2022/03/28 13:06:44;;;;;;;11.77;9.48;;;;;;;;;;4994930;28;20187;-82
2022/03/28 13:10:08;;;;;;;17.25;11.15;;;;;;;;;;4996359;28;20560;-82
2022/03/28 13:13:12;;;;;;;20.30;11.52;;;;;;;;;;4988203;28;20197;-81
2022/03/28 13:16:22;;;;;;;15.23;11.48;;;;;;;;;;5018814;28;20214;-82
2022/03/28 13:19:26;;;;;;;16.17;10.52;;;;;;;;;;4997100;28;20301;-82
2022/03/28 13:22:35;;;;;;;16.17;10.88;;;;;;;;;;5020375;28;20665;-82
2022/03/28 13:25:43;;;;;;;17.20;10.93;;;;;;;;;;5008758;28;20206;-82
2022/03/28 13:28:47;;;;;;;16.90;10.95;;;;;;;;;;4997585;28;20231;-82
2022/03/28 13:31:53;;;;;;;43.75;12.35;;;;;;;;;;5019880;28;20185;-82
2022/03/28 13:34:57;;;;;;;15.93;9.95;;;;;;;;;;5007664;28;20207;-82
2022/03/28 13:38:05;;;;;;;18.90;10.13;;;;;;;;;;5020129;28;20190;-82
2022/03/28 13:41:10;;;;;;;19.00;11.17;;;;;;;;;;5018697;28;20195;-82
2022/03/28 13:44:14;;;;;;;15.23;10.23;;;;;;;;;;4997179;28;20198;-83
2022/03/28 13:47:18;;;;;;;17.63;10.60;;;;;;;;;;5007969;28;20201;-82
2022/03/28 13:50:25;;;;;;;15.90;10.97;;;;;;;;;;4991521;28;20217;-87
2022/03/28 13:53:31;;;;;;;17.50;10.70;;;;;;;;;;4996575;28;20197;-87
2022/03/28 13:56:36;;;;;;;14.57;11.10;;;;;;;;;;4993790;28;20569;-87
2022/03/28 13:59:40;;;;;;;15.47;10.73;;;;;;;;;;5004674;28;20224;-87
2022/03/28 14:02:44;;;;;;;16.27;10.53;;;;;;;;;;5004558;28;20193;-87
2022/03/28 14:05:51;;;;;;;16.67;11.57;;;;;;;;;;4993626;28;20667;-87
2022/03/28 14:08:55;;;;;;;18.80;11.43;;;;;;;;;;5004649;28;20223;-87
2022/03/28 14:11:59;;;;;;;14.37;10.13;;;;;;;;;;4993443;28;20196;-87
2022/03/28 14:15:04;;;;;;;30.23;11.43;;;;;;;;;;5004851;28;20188;-87
2022/03/28 14:18:09;;;;;;;18.40;11.47;;;;;;;;;;4993391;28;20195;-87
2022/03/28 14:21:14;;;;;;;18.20;11.37;;;;;;;;;;4993769;28;20256;-87
2022/03/28 14:24:19;;;;;;;21.10;11.20;;;;;;;;;;5004556;28;20195;-87
2022/03/28 14:27:24;;;;;;;16.80;11.10;;;;;;;;;;5004367;28;20209;-87
2022/03/28 14:30:28;;;;;;;21.40;12.07;;;;;;;;;;4992733;28;20242;-87
2022/03/28 14:33:32;;;;;;;22.27;10.97;;;;;;;;;;5004246;28;20208;-87
2022/03/28 14:36:36;;;;;;;18.27;11.53;;;;;;;;;;5004183;28;20227;-87
2022/03/28 14:39:40;;;;;;;18.00;11.10;;;;;;;;;;4992820;28;20250;-87
2022/03/28 14:42:44;;;;;;;15.37;10.30;;;;;;;;;;5004338;28;20541;-86
2022/03/28 14:49:11;;;;;;;14.73;9.83;;;;;;;;;;5003714;28;20231;-86
2022/03/28 14:52:18;;;;;;;15.67;10.37;;;;;;;;;;5003967;28;20186;-86
2022/03/28 14:55:22;;;;;;;20.43;10.93;;;;;;;;;;4992762;28;20185;-87
2022/03/28 14:58:26;;;;;;;17.43;10.27;;;;;;;;;;4992663;28;20179;-86
2022/03/28 15:01:31;;;;;;;17.87;10.87;;;;;;;;;;4992531;28;20185;-86
2022/03/28 15:04:35;;;;;;;19.47;10.40;;;;;;;;;;4992535;28;20189;-86
2022/03/28 15:07:40;;;;;;;15.83;10.63;;;;;;;;;;5003560;28;20245;-86
2022/03/28 15:10:44;;;;;;;19.03;11.17;;;;;;;;;;5003793;28;20193;-86
2022/03/28 15:13:48;;;;;;;16.27;11.43;;;;;;;;;;5003780;28;20185;-86
2022/03/28 15:16:54;;;;;;;16.70;10.57;;;;;;;;;;4994010;28;20212;-86
2022/03/28 15:19:58;;;;;;;16.20;11.37;;;;;;;;;;5009096;28;20220;-86
2022/03/28 15:23:02;;;;;;;16.67;10.67;;;;;;;;;;4993117;28;20222;-86
2022/03/28 15:26:08;;;;;;;20.33;12.73;;;;;;;;;;4992493;28;20204;-86
2022/03/28 15:29:12;;;;;;;20.43;11.43;;;;;;;;;;4992280;28;20228;-86
2022/03/28 15:32:16;;;;;;;18.30;11.53;;;;;;;;;;5003260;28;20655;-86
2022/03/28 15:35:20;;;;;;;15.40;10.63;;;;;;;;;;4992191;28;20188;-86
2022/03/28 15:38:25;;;;;;;18.93;10.50;;;;;;;;;;5013804;28;20236;-86
2022/03/28 15:41:29;;;;;;;18.57;11.40;;;;;;;;;;5014255;28;20656;-86
2022/03/28 15:44:34;;;;;;;17.07;11.93;;;;;;;;;;4991645;28;20181;-86
2022/03/28 15:47:37;;;;;;;19.17;11.13;;;;;;;;;;4987127;28;20193;-86
2022/03/28 15:50:41;;;;;;;47.03;11.50;;;;;;;;;;4991201;28;20200;-83
2022/03/28 15:53:47;;;;;;;20.67;10.77;;;;;;;;;;4991915;28;20188;-83
2022/03/28 15:56:52;;;;;;;15.30;9.73;;;;;;;;;;5015417;28;20683;-83
2022/03/28 15:59:56;;;;;;;14.70;9.87;;;;;;;;;;5004180;28;20217;-83
2022/03/28 16:03:00;;;;;;;17.20;10.10;;;;;;;;;;4978412;28;20190;-84
2022/03/28 16:06:04;;;;;;;24.03;10.13;;;;;;;;;;4994356;28;20205;-84
2022/03/28 16:09:11;;;;;;;21.60;11.53;;;;;;;;;;4994785;28;20225;-85
2022/03/28 16:12:16;;;;;;;18.47;11.20;;;;;;;;;;5006050;28;20193;-84
2022/03/28 16:15:20;;;;;;;22.17;10.90;;;;;;;;;;4993336;28;20192;-85
2022/03/28 16:18:24;;;;;;;15.27;10.37;;;;;;;;;;5002000;28;20720;-85
2022/03/28 16:21:29;;;;;;;15.97;9.80;;;;;;;;;;4984311;28;20189;-83
2022/03/28 16:24:33;;;;;;;21.83;9.23;;;;;;;;;;5014045;28;20181;-84
2022/03/28 16:27:37;;;;;;;18.07;10.33;;;;;;;;;;5015732;28;20182;-84
2022/03/28 16:30:41;;;;;;;33.13;11.60;;;;;;;;;;4994115;28;20208;-84
2022/03/28 16:33:46;;;;;;;17.07;9.47;;;;;;;;;;4985389;28;20188;-84
2022/03/28 16:36:50;;;;;;;16.87;8.57;;;;;;;;;;5000687;28;20673;-85
2022/03/28 16:39:56;;;;;;;18.10;9.70;;;;;;;;;;4982181;28;20233;-86
2022/03/28 16:43:00;;;;;;;16.20;9.50;;;;;;;;;;4984834;28;20657;-88
2022/03/28 16:46:05;;;;;;;14.73;8.50;;;;;;;;;;4991232;28;20173;-88
2022/03/28 16:49:09;;;;;;;18.90;9.60;;;;;;;;;;5002042;28;20209;-86
2022/03/28 16:52:13;;;;;;;13.53;8.87;;;;;;;;;;5013256;28;20656;-86
2022/03/28 16:55:18;;;;;;;22.43;9.97;;;;;;;;;;4985619;28;20201;-85
2022/03/28 16:58:23;;;;;;;18.47;9.60;;;;;;;;;;4971728;28;20206;-86
2022/03/28 17:01:28;;;;;;;17.00;9.17;;;;;;;;;;4983480;28;20178;-84
2022/03/28 17:04:32;;;;;;;16.73;8.90;;;;;;;;;;4991483;28;20190;-87
2022/03/28 17:07:36;;;;;;;14.23;8.23;;;;;;;;;;5003092;28;20194;-87
2022/03/28 17:10:41;;;;;;;14.80;8.03;;;;;;;;;;4989292;28;20221;-86
2022/03/28 17:13:45;;;;;;;12.47;8.27;;;;;;;;;;4998803;28;20649;-84
2022/03/28 17:16:49;;;;;;;15.73;9.00;;;;;;;;;;4982556;28;20182;-84
2022/03/28 17:19:54;;;;;;;17.47;10.50;;;;;;;;;;4971665;28;20222;-83
2022/03/28 17:22:58;;;;;;;14.80;8.90;;;;;;;;;;4972747;28;20649;-83
2022/03/28 17:26:03;;;;;;;15.33;9.00;;;;;;;;;;4981431;28;20194;-83
2022/03/28 17:29:09;;;;;;;13.97;8.83;;;;;;;;;;5001780;28;20221;-83
2022/03/28 17:32:13;;;;;;;13.50;8.80;;;;;;;;;;4972034;28;20190;-83
2022/03/28 17:35:17;;;;;;;14.67;8.57;;;;;;;;;;4999383;28;20194;-83
2022/03/28 17:38:21;;;;;;;15.90;8.27;;;;;;;;;;4988994;28;20206;-86
2022/03/28 17:41:25;;;;;;;13.73;8.30;;;;;;;;;;4982055;28;20522;-86
2022/03/28 17:44:29;;;;;;;12.27;7.77;;;;;;;;;;4972546;28;20182;-87
2022/03/28 17:47:34;;;;;;;12.83;7.57;;;;;;;;;;4971068;28;20170;-88
2022/03/28 17:50:40;;;;;;;14.60;7.17;;;;;;;;;;4981717;28;20565;-86
2022/03/28 17:53:44;;;;;;;14.43;7.50;;;;;;;;;;4981804;28;20182;-86
2022/03/28 17:56:48;;;;;;;11.97;7.10;;;;;;;;;;4994063;28;20182;-85
2022/03/28 17:59:54;;;;;;;10.47;7.27;;;;;;;;;;4985241;28;20225;-85
2022/03/28 18:02:58;;;;;;;11.57;7.80;;;;;;;;;;4985519;28;20190;-84
2022/03/28 18:06:03;;;;;;;15.30;7.47;;;;;;;;;;4988680;28;20542;-86
2022/03/28 18:09:09;;;;;;;18.43;7.53;;;;;;;;;;4993434;28;20213;-86
2022/03/28 18:12:13;;;;;;;12.00;7.60;;;;;;;;;;4985235;28;20182;-86
2022/03/28 18:15:19;;;;;;;12.37;7.70;;;;;;;;;;4981311;28;20193;-86